createdAt,value
2018-03-27T00:02:23.608Z,45.97
2018-03-27T00:04:51.226Z,45.35
2018-03-27T00:07:19.627Z,43.47
2018-03-27T00:09:50.085Z,47.17
2018-03-27T00:12:17.702Z,47.42
2018-03-27T00:14:46.120Z,46.83
2018-03-27T00:17:13.731Z,46.53
2018-03-27T00:19:42.161Z,45.72
2018-03-27T00:22:09.764Z,44.42
2018-03-27T00:24:42.215Z,44.03
2018-03-27T00:27:09.319Z,45.75
2018-03-27T00:29:48.774Z,45.30
2018-03-27T00:32:28.147Z,44.53
2018-03-27T00:35:08.592Z,41.45
2018-03-27T00:37:47.919Z,43.22
2018-03-27T00:40:27.208Z,44.30
2018-03-27T00:42:57.406Z,43.15
2018-03-27T00:45:24.976Z,42.45
2018-03-27T00:47:53.339Z,44.08
2018-03-27T00:50:20.971Z,45.88
2018-03-27T00:52:48.604Z,45.00
2018-03-27T00:55:16.251Z,45.65
2018-03-27T00:57:43.890Z,45.63
2018-03-27T01:00:12.269Z,44.17
2018-03-27T01:02:40.648Z,45.17
2018-03-27T01:05:10.029Z,45.10
2018-03-27T01:07:37.614Z,43.87
2018-03-27T01:10:06.084Z,45.95
2018-03-27T01:12:33.708Z,46.13
2018-03-27T01:15:01.364Z,46.22
2018-03-27T01:17:28.953Z,42.88
2018-03-27T01:19:56.538Z,44.60
2018-03-27T01:22:24.918Z,45.97
2018-03-27T01:24:53.322Z,45.05
2018-03-27T01:27:20.934Z,45.15
2018-03-27T01:29:48.556Z,48.15
2018-03-27T01:32:16.190Z,47.45
2018-03-27T01:34:44.581Z,47.30
2018-03-27T01:37:12.215Z,49.72
2018-03-27T01:39:39.820Z,47.88
2018-03-27T01:42:08.167Z,46.97
2018-03-27T01:44:35.786Z,50.30
2018-03-27T01:47:03.386Z,48.97
2018-03-27T01:49:31.747Z,50.95
2018-03-27T01:51:59.336Z,49.17
2018-03-27T01:54:26.953Z,51.40
2018-03-27T01:56:55.477Z,50.65
2018-03-27T01:59:23.820Z,51.70
2018-03-27T02:01:51.454Z,51.88
2018-03-27T02:04:19.055Z,52.42
2018-03-27T02:06:46.643Z,52.13
2018-03-27T02:09:14.248Z,52.15
2018-03-27T02:11:47.778Z,53.83
2018-03-27T02:14:21.668Z,54.38
2018-03-27T02:16:54.836Z,54.95
2018-03-27T02:19:28.111Z,53.83
2018-03-27T02:21:55.289Z,55.35
2018-03-27T02:24:23.753Z,53.95
2018-03-27T02:26:51.382Z,54.58
2018-03-27T02:29:19.042Z,53.40
2018-03-27T02:31:46.691Z,51.33
2018-03-27T02:34:15.081Z,52.25
2018-03-27T02:36:42.674Z,50.55
2018-03-27T02:39:10.320Z,50.00
2018-03-27T02:41:37.933Z,49.63
2018-03-27T02:44:06.354Z,49.03
2018-03-27T02:46:33.907Z,49.60
2018-03-27T02:49:01.504Z,49.35
2018-03-27T02:51:29.109Z,51.13
2018-03-27T02:53:57.960Z,48.38
2018-03-27T02:56:25.515Z,49.40
2018-03-27T02:58:53.164Z,50.35
2018-03-27T03:01:20.753Z,49.60
2018-03-27T03:03:48.392Z,49.03
2018-03-27T03:06:15.979Z,48.60
2018-03-27T03:08:43.590Z,48.47
2018-03-27T03:11:11.174Z,49.17
2018-03-27T03:13:38.802Z,50.47
2018-03-27T03:16:06.399Z,47.65
2018-03-27T03:18:34.009Z,48.35
2018-03-27T03:21:01.660Z,48.55
2018-03-27T03:23:30.061Z,48.00
2018-03-27T03:25:57.660Z,47.90
2018-03-27T03:28:25.312Z,45.72
2018-03-27T03:30:52.911Z,46.95
2018-03-27T03:33:20.548Z,46.88
2018-03-27T03:35:48.176Z,46.58
2018-03-27T03:38:15.808Z,47.83
2018-03-27T03:40:44.173Z,47.70
2018-03-27T03:43:11.791Z,48.25
2018-03-27T03:45:39.393Z,47.90
2018-03-27T03:48:06.968Z,47.28
2018-03-27T03:50:35.382Z,49.65
2018-03-27T03:56:10.041Z,47.42
2018-03-27T03:58:37.651Z,49.20
2018-03-27T04:01:06.028Z,48.78
2018-03-27T04:03:34.392Z,49.17
2018-03-27T04:06:02.004Z,48.78
2018-03-27T04:08:29.612Z,48.92
2018-03-27T04:10:57.204Z,48.45
2018-03-27T04:13:24.881Z,49.83
2018-03-27T04:15:52.448Z,46.97
2018-03-27T04:18:22.959Z,48.65
2018-03-27T04:20:50.552Z,48.85
2018-03-27T04:23:18.181Z,50.55
2018-03-27T04:25:45.777Z,50.25
2018-03-27T04:28:13.402Z,47.20
2018-03-27T04:30:41.004Z,48.75
2018-03-27T04:33:08.631Z,48.03
2018-03-27T04:35:36.255Z,49.35
2018-03-27T04:38:04.606Z,51.72
2018-03-27T04:40:32.192Z,48.65
2018-03-27T04:43:00.556Z,50.20
2018-03-27T04:45:28.143Z,47.80
2018-03-27T04:47:55.734Z,48.25
2018-03-27T04:50:23.375Z,47.80
2018-03-27T04:52:50.972Z,47.47
2018-03-27T04:55:18.592Z,48.00
2018-03-27T04:57:46.168Z,48.60
2018-03-27T05:00:13.819Z,50.63
2018-03-27T05:02:42.128Z,49.47
2018-03-27T05:05:09.719Z,52.28
2018-03-27T05:07:37.335Z,50.72
2018-03-27T05:10:05.709Z,50.28
2018-03-27T05:12:33.294Z,49.85
2018-03-27T05:15:00.908Z,50.33
2018-03-27T05:17:28.456Z,50.12
2018-03-27T05:19:56.836Z,51.30
2018-03-27T05:22:25.257Z,50.72
2018-03-27T05:25:01.409Z,52.72
2018-03-27T05:27:29.064Z,53.67
2018-03-27T05:29:56.646Z,50.70
2018-03-27T05:32:24.303Z,50.05
2018-03-27T05:34:52.664Z,50.88
2018-03-27T05:37:20.269Z,48.17
2018-03-27T05:39:47.918Z,47.50
2018-03-27T05:42:15.515Z,47.88
2018-03-27T05:44:43.912Z,46.42
2018-03-27T05:47:11.556Z,44.33
2018-03-27T05:49:39.984Z,42.50
2018-03-27T05:52:07.570Z,43.45
2018-03-27T05:54:35.193Z,41.50
2018-03-27T05:57:02.794Z,40.25
2018-03-27T05:59:30.376Z,40.03
2018-03-27T06:01:58.756Z,42.13
2018-03-27T06:04:27.083Z,42.13
2018-03-27T06:06:54.696Z,40.72
2018-03-27T06:09:23.079Z,39.92
2018-03-27T06:11:51.460Z,41.83
2018-03-27T06:14:19.114Z,41.42
2018-03-27T06:16:47.468Z,39.17
2018-03-27T06:19:15.111Z,40.15
2018-03-27T06:21:42.712Z,41.35
2018-03-27T06:24:11.066Z,41.60
2018-03-27T06:26:40.514Z,38.85
2018-03-27T06:29:08.167Z,40.97
2018-03-27T06:31:35.741Z,39.50
2018-03-27T06:34:03.940Z,39.22
2018-03-27T06:36:31.570Z,39.28
2018-03-27T06:38:59.186Z,39.97
2018-03-27T06:41:27.583Z,38.70
2018-03-27T06:43:55.947Z,37.70
2018-03-27T06:46:23.542Z,38.30
2018-03-27T06:48:51.149Z,38.03
2018-03-27T06:51:18.751Z,37.65
2018-03-27T06:53:47.110Z,36.55
2018-03-27T06:56:15.481Z,35.92
2018-03-27T06:58:43.099Z,36.65
2018-03-27T07:01:10.694Z,36.25
2018-03-27T07:03:38.360Z,35.92
2018-03-27T07:06:05.975Z,36.70
2018-03-27T07:08:33.614Z,37.85
2018-03-27T07:11:01.964Z,38.95
2018-03-27T07:13:29.579Z,38.05
2018-03-27T07:15:57.961Z,37.20
2018-03-27T07:18:25.586Z,36.80
2018-03-27T07:20:53.270Z,36.30
2018-03-27T07:23:20.877Z,38.00
2018-03-27T07:25:48.470Z,37.75
2018-03-27T07:28:16.071Z,36.92
2018-03-27T07:30:43.766Z,37.17
2018-03-27T07:33:11.399Z,37.25
2018-03-27T07:35:38.966Z,37.95
2018-03-27T07:38:06.575Z,36.70
2018-03-27T07:40:34.291Z,36.85
2018-03-27T07:43:01.955Z,39.50
2018-03-27T07:45:29.587Z,35.42
2018-03-27T07:47:58.051Z,34.42
2018-03-27T07:50:25.631Z,33.87
2018-03-27T07:52:53.289Z,33.50
2018-03-27T07:55:20.939Z,33.73
2018-03-27T07:57:48.583Z,31.07
2018-03-27T08:00:16.934Z,30.47
2018-03-27T08:02:44.575Z,32.00
2018-03-27T08:05:12.197Z,32.53
2018-03-27T08:07:39.807Z,33.90
2018-03-27T08:10:07.390Z,31.70
2018-03-27T08:12:35.789Z,32.20
2018-03-27T08:15:03.387Z,32.43
2018-03-27T08:17:31.024Z,33.30
2018-03-27T08:19:58.608Z,31.17
2018-03-27T08:22:26.264Z,31.83
2018-03-27T08:24:53.888Z,30.20
2018-03-27T08:27:21.499Z,30.60
2018-03-27T08:29:49.144Z,29.87
2018-03-27T08:32:16.746Z,30.53
2018-03-27T08:34:44.375Z,29.27
2018-03-27T08:37:11.939Z,31.50
2018-03-27T08:39:39.547Z,32.50
2018-03-27T08:42:07.928Z,29.77
2018-03-27T08:44:36.280Z,29.43
2018-03-27T08:47:03.925Z,30.10
2018-03-27T08:49:31.510Z,31.13
2018-03-27T08:51:59.136Z,29.50
2018-03-27T08:54:26.812Z,29.53
2018-03-27T08:56:54.446Z,29.67
2018-03-27T08:59:22.083Z,29.53
2018-03-27T09:01:49.715Z,29.27
2018-03-27T09:04:17.295Z,27.40
2018-03-27T09:06:45.633Z,25.30
2018-03-27T09:09:13.253Z,22.27
2018-03-27T09:11:53.596Z,22.97
2018-03-27T09:14:21.955Z,21.10
2018-03-27T09:16:50.383Z,20.23
2018-03-27T09:19:17.963Z,20.40
2018-03-27T09:21:45.576Z,21.67
2018-03-27T09:24:13.192Z,20.57
2018-03-27T09:26:40.830Z,20.27
2018-03-27T09:29:08.392Z,18.90
2018-03-27T09:31:36.005Z,19.43
2018-03-27T09:34:04.370Z,19.73
2018-03-27T09:36:31.941Z,21.43
2018-03-27T09:39:00.271Z,19.30
2018-03-27T09:41:27.848Z,16.40
2018-03-27T09:43:55.452Z,17.40
2018-03-27T09:46:23.785Z,17.23
2018-03-27T09:48:51.433Z,18.97
2018-03-27T09:51:19.047Z,18.70
2018-03-27T09:53:47.434Z,18.27
2018-03-27T09:56:15.052Z,17.83
2018-03-27T09:58:42.667Z,18.43
2018-03-27T10:01:10.299Z,18.20
2018-03-27T10:03:38.668Z,16.63
2018-03-27T10:06:07.071Z,18.13
2018-03-27T10:08:34.709Z,18.70
2018-03-27T10:11:02.287Z,19.30
2018-03-27T10:13:29.939Z,17.73
2018-03-27T10:15:57.519Z,17.03
2018-03-27T10:18:25.138Z,16.20
2018-03-27T10:20:52.720Z,12.33
2018-03-27T10:23:21.144Z,12.20
2018-03-27T10:25:48.807Z,11.23
2018-03-27T10:28:16.395Z,11.13
2018-03-27T10:30:44.002Z,11.27
2018-03-27T10:33:11.611Z,12.53
2018-03-27T10:35:39.223Z,12.63
2018-03-27T10:38:06.823Z,13.00
2018-03-27T10:40:34.435Z,12.73
2018-03-27T10:43:02.084Z,12.73
2018-03-27T10:45:30.487Z,14.40
2018-03-27T10:47:58.121Z,15.37
2018-03-27T10:50:26.471Z,15.70
2018-03-27T10:52:54.110Z,15.10
2018-03-27T10:55:21.696Z,13.60
2018-03-27T10:57:49.318Z,13.50
2018-03-27T11:00:16.935Z,13.60
2018-03-27T11:02:44.572Z,14.37
2018-03-27T11:05:12.172Z,15.27
2018-03-27T11:07:39.795Z,14.53
2018-03-27T11:10:08.331Z,15.27
2018-03-27T11:12:35.942Z,14.60
2018-03-27T11:15:03.539Z,14.87
2018-03-27T11:17:31.208Z,14.50
2018-03-27T11:19:59.575Z,13.40
2018-03-27T11:22:27.218Z,12.60
2018-03-27T11:24:55.595Z,12.30
2018-03-27T11:27:23.985Z,13.03
2018-03-27T11:29:52.376Z,12.60
2018-03-27T11:32:19.980Z,12.53
2018-03-27T11:34:47.642Z,13.73
2018-03-27T11:37:15.238Z,13.67
2018-03-27T11:39:43.600Z,13.90
2018-03-27T11:42:11.230Z,14.30
2018-03-27T11:44:38.845Z,13.40
2018-03-27T11:47:07.238Z,14.43
2018-03-27T11:49:34.862Z,14.13
2018-03-27T11:52:02.452Z,13.83
2018-03-27T11:54:30.095Z,14.00
2018-03-27T11:56:57.736Z,13.53
2018-03-27T11:59:25.323Z,12.77
2018-03-27T12:01:53.691Z,13.27
2018-03-27T12:04:22.112Z,12.77
2018-03-27T12:06:49.819Z,12.83
2018-03-27T12:09:17.452Z,12.93
2018-03-27T12:11:45.025Z,13.47
2018-03-27T12:14:12.653Z,13.37
2018-03-27T12:16:40.303Z,12.80
2018-03-27T12:19:07.904Z,12.63
2018-03-27T12:21:35.507Z,12.17
2018-03-27T12:24:03.120Z,12.77
2018-03-27T12:26:30.740Z,12.90
2018-03-27T12:28:58.380Z,12.90
2018-03-27T12:31:26.004Z,13.20
2018-03-27T12:33:54.488Z,13.10
2018-03-27T12:36:22.057Z,12.70
2018-03-27T12:38:49.646Z,12.30
2018-03-27T12:41:17.256Z,13.17
2018-03-27T12:43:44.895Z,14.20
2018-03-27T12:46:12.519Z,13.10
2018-03-27T12:48:40.113Z,13.33
2018-03-27T12:51:07.755Z,13.03
2018-03-27T12:53:36.116Z,13.90
2018-03-27T12:56:03.765Z,14.20
2018-03-27T12:58:31.366Z,13.50
2018-03-27T13:00:59.048Z,13.40
2018-03-27T13:03:26.695Z,14.37
2018-03-27T13:05:54.306Z,13.43
2018-03-27T13:08:21.920Z,13.30
2018-03-27T13:10:49.586Z,13.63
2018-03-27T13:13:17.228Z,13.13
2018-03-27T13:15:45.620Z,13.30
2018-03-27T13:18:13.192Z,12.67
2018-03-27T13:20:40.847Z,13.27
2018-03-27T13:23:08.425Z,12.30
2018-03-27T13:25:35.979Z,12.53
2018-03-27T13:28:03.596Z,12.63
2018-03-27T13:30:31.980Z,13.00
2018-03-27T13:33:00.357Z,12.93
2018-03-27T13:35:27.935Z,12.87
2018-03-27T13:37:55.507Z,13.20
2018-03-27T13:40:23.116Z,12.83
2018-03-27T13:43:09.860Z,12.67
2018-03-27T13:45:37.486Z,13.17
2018-03-27T13:48:05.080Z,13.50
2018-03-27T13:50:32.695Z,13.07
2018-03-27T13:53:00.320Z,12.43
2018-03-27T13:55:27.942Z,12.80
2018-03-27T13:57:55.592Z,13.67
2018-03-27T14:00:23.290Z,13.30
2018-03-27T14:02:50.884Z,13.27
2018-03-27T14:05:18.509Z,14.10
2018-03-27T14:07:46.158Z,12.67
2018-03-27T14:10:14.584Z,13.43
2018-03-27T14:12:42.143Z,12.50
2018-03-27T14:15:09.725Z,13.80
2018-03-27T14:17:37.312Z,12.60
2018-03-27T14:20:05.716Z,13.60
2018-03-27T14:22:33.330Z,12.60
2018-03-27T14:25:00.961Z,13.40
2018-03-27T14:27:28.559Z,13.03
2018-03-27T14:29:56.221Z,11.83
2018-03-27T14:32:24.687Z,14.23
2018-03-27T14:34:52.301Z,14.57
2018-03-27T14:37:19.882Z,13.60
2018-03-27T14:39:47.485Z,14.40
2018-03-27T14:42:15.905Z,19.70
2018-03-27T14:44:43.573Z,14.67
2018-03-27T14:47:11.236Z,15.10
2018-03-27T14:49:38.828Z,15.57
2018-03-27T14:52:06.416Z,16.37
2018-03-27T14:54:34.792Z,17.00
2018-03-27T14:57:02.412Z,15.80
2018-03-27T14:59:30.017Z,17.53
2018-03-27T15:01:57.656Z,76.83
2018-03-27T15:04:25.228Z,34.07
2018-03-27T15:06:52.846Z,21.80
2018-03-27T15:09:20.518Z,18.20
2018-03-27T15:11:48.133Z,18.30
2018-03-27T15:14:15.763Z,18.50
2018-03-27T15:16:43.339Z,17.87
2018-03-27T15:19:11.748Z,17.67
2018-03-27T15:21:39.387Z,18.30
2018-03-27T15:24:07.813Z,17.80
2018-03-27T15:26:35.428Z,16.90
2018-03-27T15:29:03.836Z,18.40
2018-03-27T15:31:31.404Z,17.97
2018-03-27T15:33:59.015Z,17.33
2018-03-27T15:36:27.370Z,18.13
2018-03-27T15:38:54.993Z,18.00
2018-03-27T15:41:22.590Z,18.20
2018-03-27T15:43:52.313Z,18.10
2018-03-27T15:46:19.880Z,19.03
2018-03-27T15:48:48.283Z,19.60
2018-03-27T15:51:16.852Z,20.17
2018-03-27T15:53:45.241Z,19.13
2018-03-27T15:56:12.913Z,19.87
2018-03-27T15:58:40.496Z,20.93
2018-03-27T16:01:08.134Z,20.17
2018-03-27T16:03:35.764Z,21.23
2018-03-27T16:06:03.386Z,19.13
2018-03-27T16:08:31.007Z,20.27
2018-03-27T16:10:58.651Z,22.00
2018-03-27T16:13:27.071Z,20.30
2018-03-27T16:15:59.935Z,19.77
2018-03-27T16:18:27.586Z,19.63
2018-03-27T16:20:55.160Z,19.57
2018-03-27T16:23:22.800Z,19.63
2018-03-27T16:25:51.211Z,20.63
2018-03-27T16:28:18.842Z,18.50
2018-03-27T16:30:46.433Z,19.97
2018-03-27T16:33:14.006Z,19.40
2018-03-27T16:35:41.624Z,18.77
2018-03-27T16:38:09.256Z,18.77
2018-03-27T16:40:36.896Z,19.90
2018-03-27T16:43:04.538Z,20.30
2018-03-27T16:45:32.227Z,19.87
2018-03-27T16:47:59.861Z,19.70
2018-03-27T16:50:27.517Z,19.60
2018-03-27T16:52:55.106Z,18.50
2018-03-27T16:55:22.764Z,20.00
2018-03-27T16:57:50.408Z,17.93
2018-03-27T17:00:18.065Z,18.00
2018-03-27T17:02:45.695Z,19.37
2018-03-27T17:05:14.095Z,18.13
2018-03-27T17:07:41.738Z,19.10
2018-03-27T17:10:10.132Z,19.80
2018-03-27T17:12:37.784Z,17.63
2018-03-27T17:15:05.447Z,17.50
2018-03-27T17:17:33.116Z,18.90
2018-03-27T17:20:00.785Z,18.40
2018-03-27T17:22:28.371Z,18.53
2018-03-27T17:24:56.060Z,19.37
2018-03-27T17:27:23.686Z,19.20
2018-03-27T17:29:51.307Z,18.17
2018-03-27T17:32:18.932Z,17.90
2018-03-27T17:34:46.523Z,18.50
2018-03-27T17:37:14.925Z,18.60
2018-03-27T17:39:43.288Z,18.30
2018-03-27T17:42:10.947Z,15.57
2018-03-27T17:44:38.548Z,17.47
2018-03-27T17:47:06.162Z,16.37
2018-03-27T17:49:34.513Z,16.30
2018-03-27T17:52:02.634Z,16.43
2018-03-27T17:54:30.292Z,17.30
2018-03-27T17:56:57.956Z,17.07
2018-03-27T17:59:25.640Z,17.50
2018-03-27T18:01:53.291Z,18.20
2018-03-27T18:04:22.891Z,18.80
2018-03-27T18:06:50.499Z,17.80
2018-03-27T18:09:23.585Z,17.87
2018-03-27T18:11:58.127Z,17.62
2018-03-27T18:14:26.566Z,47.40
2018-03-27T18:16:54.193Z,27.80
2018-03-27T18:19:21.909Z,20.65
2018-03-27T18:21:49.600Z,22.87
2018-03-27T18:24:17.245Z,25.40
2018-03-27T18:26:44.897Z,21.17
2018-03-27T18:29:12.580Z,19.85
2018-03-27T18:31:40.977Z,20.70
2018-03-27T18:34:08.639Z,28.08
2018-03-27T18:36:36.251Z,22.10
2018-03-27T18:39:03.943Z,19.75
2018-03-27T18:41:40.939Z,20.70
2018-03-27T18:44:08.552Z,20.83
2018-03-27T18:46:36.138Z,19.80
2018-03-27T18:49:03.784Z,21.75
2018-03-27T18:51:31.463Z,21.90
2018-03-27T18:53:59.146Z,22.30
2018-03-27T18:56:26.776Z,22.17
2018-03-27T18:58:54.394Z,22.67
2018-03-27T19:01:22.048Z,23.33
2018-03-27T19:03:50.579Z,21.52
2018-03-27T19:06:18.225Z,21.85
2018-03-27T19:08:45.938Z,22.55
2018-03-27T19:11:13.537Z,21.42
2018-03-27T19:13:41.198Z,22.60
2018-03-27T19:16:08.800Z,21.50
2018-03-27T19:24:26.625Z,23.90
2018-03-27T19:26:54.285Z,22.23
2018-03-27T19:29:22.715Z,21.60
2018-03-27T19:31:51.076Z,22.70
2018-03-27T19:34:19.585Z,22.50
2018-03-27T19:36:47.252Z,23.20
2018-03-27T19:39:34.215Z,22.90
2018-03-27T19:42:01.843Z,23.17
2018-03-27T19:44:29.497Z,23.87
2018-03-27T19:46:57.116Z,22.60
2018-03-27T19:49:24.756Z,22.42
2018-03-27T19:52:11.496Z,21.27
2018-03-27T19:54:39.908Z,22.55
2018-03-27T19:57:07.504Z,22.65
2018-03-27T19:59:35.120Z,22.08
2018-03-27T20:02:04.730Z,21.55
2018-03-27T20:04:32.471Z,22.30
2018-03-27T20:07:00.893Z,23.35
2018-03-27T20:09:28.487Z,22.27
2018-03-27T20:11:56.111Z,21.50
2018-03-27T20:14:23.708Z,21.37
2018-03-27T20:16:51.346Z,21.55
2018-03-27T20:19:19.026Z,20.05
2018-03-27T20:21:46.668Z,21.45
2018-03-27T20:24:14.362Z,20.05
2018-03-27T20:26:42.021Z,20.35
2018-03-27T20:29:09.693Z,20.05
2018-03-27T20:31:37.329Z,20.62
2018-03-27T20:34:04.975Z,20.02
2018-03-27T20:36:32.657Z,20.92
2018-03-27T20:39:00.332Z,18.98
2018-03-27T20:41:27.940Z,19.73
2018-03-27T20:43:55.612Z,18.75
2018-03-27T20:46:23.303Z,18.60
2018-03-27T20:48:50.964Z,18.23
2018-03-27T20:51:18.565Z,20.40
2018-03-27T20:53:46.960Z,18.45
2018-03-27T20:56:14.661Z,18.33
2018-03-27T20:58:42.276Z,17.62
2018-03-27T21:01:09.877Z,18.85
2018-03-27T21:03:37.532Z,16.10
2018-03-27T21:06:05.129Z,16.33
2018-03-27T21:08:32.797Z,16.85
2018-03-27T21:11:00.409Z,16.00
2018-03-27T21:13:28.024Z,15.87
2018-03-27T21:15:56.402Z,16.73
2018-03-27T21:18:25.068Z,15.43
2018-03-27T21:20:52.735Z,15.30
2018-03-27T21:23:20.337Z,14.93
2018-03-27T21:25:47.902Z,14.75
2018-03-27T21:28:15.514Z,14.02
2018-03-27T21:30:43.117Z,15.55
2018-03-27T21:33:10.766Z,13.62
2018-03-27T21:35:38.523Z,13.32
2018-03-27T21:38:06.940Z,13.68
2018-03-27T21:40:34.574Z,12.90
2018-03-27T21:43:02.260Z,12.70
2018-03-27T21:45:30.688Z,13.00
2018-03-27T21:47:58.327Z,12.00
2018-03-27T21:50:26.005Z,12.18
2018-03-27T21:52:53.669Z,12.57
2018-03-27T21:55:21.292Z,12.23
2018-03-27T21:57:48.885Z,12.30
2018-03-27T22:00:16.512Z,10.80
2018-03-27T22:02:44.187Z,11.55
2018-03-27T22:05:12.601Z,10.68
2018-03-27T22:07:40.996Z,10.70
2018-03-27T22:10:09.401Z,10.15
2018-03-27T22:12:37.038Z,9.50
2018-03-27T22:15:05.494Z,9.35
2018-03-27T22:17:33.148Z,10.07
2018-03-27T22:20:00.773Z,8.80
2018-03-27T22:22:28.425Z,7.75
2018-03-27T22:24:56.108Z,7.75
2018-03-27T22:27:23.716Z,8.10
2018-03-27T22:29:52.091Z,7.07
2018-03-27T22:32:19.687Z,7.60
2018-03-27T22:34:47.360Z,7.45
2018-03-27T22:37:15.015Z,7.30
2018-03-27T22:39:42.650Z,7.35
2018-03-27T22:42:10.290Z,7.62
2018-03-27T22:44:38.661Z,7.70
2018-03-27T22:47:06.296Z,7.15
2018-03-27T22:49:33.889Z,7.70
2018-03-27T22:52:02.262Z,7.65
2018-03-27T22:54:29.868Z,7.82
2018-03-27T22:56:57.490Z,6.55
2018-03-27T22:59:25.856Z,6.90
2018-03-27T23:01:53.488Z,6.50
2018-03-27T23:04:21.088Z,6.30
2018-03-27T23:06:49.471Z,5.43
2018-03-27T23:09:17.848Z,5.55
2018-03-27T23:11:45.443Z,5.60
2018-03-27T23:14:13.081Z,5.20
2018-03-27T23:16:41.380Z,5.78
2018-03-27T23:19:09.043Z,5.90
2018-03-27T23:21:36.650Z,5.57
2018-03-27T23:24:04.258Z,5.22
2018-03-27T23:26:31.869Z,6.20
2018-03-27T23:28:59.553Z,5.82
2018-03-27T23:31:27.952Z,5.82
2018-03-27T23:33:55.597Z,5.37
2018-03-27T23:36:24.004Z,6.00
2018-03-27T23:38:51.572Z,5.65
2018-03-27T23:41:19.206Z,6.07
2018-03-27T23:43:46.840Z,5.72
2018-03-27T23:46:14.487Z,6.03
2018-03-27T23:48:42.132Z,5.87
2018-03-27T23:51:09.747Z,6.40
2018-03-27T23:53:37.356Z,6.00
2018-03-27T23:56:04.967Z,5.80
2018-03-27T23:58:33.876Z,5.90
